Overview Statistics Trail Chart Weather Telemetry Raw packets
 

This is the latest recevied weather packets stored in our database for station/object KE6JJJ-1. If no packets are shown the sender has not sent any weather packets the latest 10 day(s).

<< 3 4 5 6 7 8 9 >>
Time Temp. Humidity Pressure Rain* Wind** Luminosity Snow
1788465903 22.22° C 72% 1013.7 hPa 0 mm - 496 W/m² -
1788464103 22.22° C 72% 1014 hPa 0 mm - 431 W/m² -
1788462303 22.22° C 72% 1014.3 hPa 0 mm - 246 W/m² -
1788460503 21.67° C 71% 1014.6 hPa 0 mm - 279 W/m² -
1788458703 22.22° C 70% 1014.6 hPa 0 mm - 364 W/m² -
1788456903 21.11° C 71% 1014.5 hPa 0 mm - 501 W/m² -
1788455103 20.56° C 74% 1014.5 hPa 0 mm - 446 W/m² -
1788453303 19.44° C 78% 1014.7 hPa 0 mm - 197 W/m² -
1788451503 18.33° C 83% 1014.8 hPa 0 mm - 174 W/m² -
1788449704 17.78° C 86% 1014.8 hPa 0 mm - 81 W/m² -
1788447903 17.22° C 87% 1014.9 hPa 0 mm - 79 W/m² -
1788446103 16.67° C 88% 1014.9 hPa 0 mm - 74 W/m² -
1788444303 16.11° C 87% 1014.7 hPa 0 mm - 35 W/m² -
1788442504 16.11° C 87% 1014.5 hPa 0 mm - 0 W/m² -
1788440703 16.67° C 87% 1014.6 hPa 0 mm - 0 W/m² -
1788438903 16.67° C 87% 1014.7 hPa 0 mm - 0 W/m² -
1788437103 16.67° C 87% 1014.9 hPa 0 mm - 0 W/m² -
1788435303 16.67° C 87% 1015.1 hPa 0 mm - 0 W/m² -
1788433503 17.22° C 87% 1015.4 hPa 0 mm - 0 W/m² -
1788431703 17.22° C 87% 1015.4 hPa 0 mm - 0 W/m² -
1788429904 17.22° C 87% 1015.5 hPa 0 mm - 0 W/m² -
1788428103 17.22° C 87% 1015.7 hPa 0 mm - 0 W/m² -
1788426303 17.22° C 87% 1016 hPa 0 mm - 0 W/m² -
1788424503 17.22° C 87% 1015.9 hPa 0 mm - 0 W/m² -
1788423230 16.67° C 87% 1016 hPa 0 mm - 0 W/m² -

* Rain latest hour (hover to see other rain measurements)
** Current wind speed in m/s (hover to see current wind gust speed)